createdAt,value
2018-05-18T00:02:10.457Z,10.60
2018-05-18T00:04:42.833Z,10.50
2018-05-18T00:07:16.005Z,10.60
2018-05-18T00:09:48.310Z,10.60
2018-05-18T00:12:21.473Z,10.60
2018-05-18T00:14:53.788Z,10.50
2018-05-18T00:17:26.218Z,10.60
2018-05-18T00:19:58.560Z,10.50
2018-05-18T00:22:31.590Z,10.50
2018-05-18T00:25:03.950Z,10.50
2018-05-18T00:27:36.252Z,10.40
2018-05-18T00:30:09.519Z,10.40
2018-05-18T00:32:41.844Z,10.40
2018-05-18T00:35:14.145Z,10.50
2018-05-18T00:37:46.514Z,10.40
2018-05-18T00:40:18.807Z,10.40
2018-05-18T00:42:51.212Z,10.40
2018-05-18T00:45:25.567Z,10.40
2018-05-18T00:47:58.193Z,10.40
2018-05-18T00:50:30.577Z,10.40
2018-05-18T00:53:03.648Z,10.40
2018-05-18T00:55:54.985Z,10.30
2018-05-18T00:58:28.117Z,10.40
2018-05-18T01:01:00.492Z,10.40
2018-05-18T01:03:32.850Z,10.40
2018-05-18T01:06:05.251Z,10.40
2018-05-18T01:08:37.592Z,10.40
2018-05-18T01:11:09.884Z,10.40
2018-05-18T01:13:42.229Z,10.40
2018-05-18T01:16:14.529Z,10.40
2018-05-18T01:18:47.032Z,10.40
2018-05-18T01:21:20.201Z,10.30
2018-05-18T01:23:52.627Z,10.30
2018-05-18T01:26:24.915Z,10.30
2018-05-18T01:28:57.313Z,10.30
2018-05-18T01:31:29.666Z,10.40
2018-05-18T01:34:02.095Z,10.30
2018-05-18T01:36:34.403Z,10.30
2018-05-18T01:39:06.725Z,10.20
2018-05-18T01:41:39.075Z,10.30
2018-05-18T01:44:11.572Z,10.30
2018-05-18T01:46:43.923Z,10.30
2018-05-18T01:49:17.367Z,10.30
2018-05-18T01:51:50.506Z,10.30
2018-05-18T01:54:23.269Z,10.30
2018-05-18T01:56:56.441Z,10.30
2018-05-18T01:59:28.890Z,10.30
2018-05-18T02:02:01.237Z,10.20
2018-05-18T02:04:33.656Z,10.30
2018-05-18T02:07:05.984Z,10.30
2018-05-18T02:09:38.392Z,10.30
2018-05-18T02:12:11.471Z,10.20
2018-05-18T02:14:44.571Z,10.20
2018-05-18T02:17:16.871Z,10.10
2018-05-18T02:19:49.156Z,10.20
2018-05-18T02:22:21.587Z,10.20
2018-05-18T02:24:54.779Z,10.20
2018-05-18T02:27:27.981Z,10.20
2018-05-18T02:30:00.414Z,10.20
2018-05-18T02:32:32.720Z,10.20
2018-05-18T02:35:04.989Z,10.20
2018-05-18T02:37:37.316Z,10.20
2018-05-18T02:40:09.693Z,10.30
2018-05-18T02:42:42.132Z,10.20
2018-05-18T02:45:14.483Z,10.20
2018-05-18T02:47:47.532Z,10.20
2018-05-18T02:50:19.818Z,10.20
2018-05-18T02:52:53.580Z,10.20
2018-05-18T02:55:26.029Z,10.10
2018-05-18T02:57:58.338Z,10.10
2018-05-18T03:00:30.676Z,10.10
2018-05-18T03:03:03.052Z,10.10
2018-05-18T03:05:35.656Z,10.10
2018-05-18T03:08:08.052Z,10.10
2018-05-18T03:10:40.611Z,10.10
2018-05-18T03:13:13.241Z,10.20
2018-05-18T03:15:45.717Z,10.10
2018-05-18T03:18:18.859Z,10.10
2018-05-18T03:20:51.333Z,10.10
2018-05-18T03:23:23.801Z,10.10
2018-05-18T03:25:56.166Z,10.10
2018-05-18T03:28:28.442Z,10.10
2018-05-18T03:31:00.795Z,10.10
2018-05-18T03:33:33.103Z,10.10
2018-05-18T03:36:05.459Z,10.10
2018-05-18T03:38:37.853Z,10.10
2018-05-18T03:41:10.154Z,10.10
2018-05-18T03:43:42.556Z,10.20
2018-05-18T03:46:14.907Z,10.10
2018-05-18T03:48:47.914Z,10.10
2018-05-18T03:51:20.363Z,10.10
2018-05-18T03:53:52.712Z,10.10
2018-05-18T03:56:26.019Z,10.10
2018-05-18T03:58:59.114Z,10.20
2018-05-18T04:01:44.767Z,10.10
2018-05-18T04:04:29.565Z,10.10
2018-05-18T04:07:15.166Z,10.10
2018-05-18T04:09:47.526Z,10.10
2018-05-18T04:12:19.991Z,10.30
2018-05-18T04:14:53.334Z,10.10
2018-05-18T04:17:25.743Z,10.10
2018-05-18T04:19:58.085Z,10.20
2018-05-18T04:22:30.469Z,10.10
2018-05-18T04:25:02.929Z,10.20
2018-05-18T04:27:35.336Z,10.20
2018-05-18T04:30:07.775Z,10.30
2018-05-18T04:32:40.099Z,10.30
2018-05-18T04:35:13.171Z,10.30
2018-05-18T04:37:45.543Z,10.30
2018-05-18T04:40:17.896Z,10.30
2018-05-18T04:42:50.192Z,10.40
2018-05-18T04:45:23.254Z,10.50
2018-05-18T04:47:55.543Z,10.40
2018-05-18T04:50:27.833Z,10.50
2018-05-18T04:53:00.968Z,10.30
2018-05-18T04:55:33.380Z,10.40
2018-05-18T04:58:05.968Z,10.30
2018-05-18T05:00:40.093Z,10.40
2018-05-18T05:03:12.516Z,10.40
2018-05-18T05:05:44.857Z,10.40
2018-05-18T05:08:17.183Z,10.60
2018-05-18T05:10:50.140Z,11.00
2018-05-18T05:13:22.895Z,10.50
2018-05-18T05:15:55.438Z,10.50
2018-05-18T05:18:28.117Z,10.60
2018-05-18T05:21:00.761Z,10.70
2018-05-18T05:23:34.264Z,10.80
2018-05-18T05:26:06.540Z,10.90
2018-05-18T05:28:38.953Z,10.90
2018-05-18T05:31:12.097Z,11.00
2018-05-18T05:33:44.492Z,10.90
2018-05-18T05:36:16.771Z,11.00
2018-05-18T05:38:49.754Z,11.00
2018-05-18T05:41:22.000Z,11.00
2018-05-18T05:43:54.375Z,11.00
2018-05-18T05:46:26.744Z,11.00
2018-05-18T05:48:59.085Z,11.20
2018-05-18T05:51:31.389Z,11.10
2018-05-18T05:54:03.689Z,11.00
2018-05-18T05:56:35.981Z,11.10
2018-05-18T05:59:09.201Z,11.10
2018-05-18T06:01:42.320Z,11.10
2018-05-18T06:04:14.619Z,11.10
2018-05-18T06:06:46.901Z,11.20
2018-05-18T06:09:19.973Z,11.30
2018-05-18T06:11:52.307Z,11.30
2018-05-18T06:14:24.901Z,11.50
2018-05-18T06:16:57.213Z,11.40
2018-05-18T06:19:30.439Z,11.40
2018-05-18T06:22:02.739Z,11.40
2018-05-18T06:24:35.088Z,11.40
2018-05-18T06:27:07.430Z,11.40
2018-05-18T06:29:39.775Z,11.50
2018-05-18T06:32:12.071Z,11.40
2018-05-18T06:34:44.608Z,11.40
2018-05-18T06:37:17.569Z,11.30
2018-05-18T06:39:50.015Z,11.30
2018-05-18T06:42:22.424Z,11.30
2018-05-18T06:44:54.756Z,11.40
2018-05-18T06:47:26.989Z,11.50
2018-05-18T06:49:59.268Z,11.60
2018-05-18T06:52:31.632Z,11.60
2018-05-18T06:55:04.004Z,11.50
2018-05-18T06:57:36.345Z,11.40
2018-05-18T07:00:08.748Z,11.50
2018-05-18T07:02:41.155Z,11.60
2018-05-18T07:05:13.537Z,11.60
2018-05-18T07:07:45.861Z,11.60
2018-05-18T07:10:18.233Z,11.70
2018-05-18T07:12:50.539Z,11.80
2018-05-18T07:15:22.887Z,11.80
2018-05-18T07:17:55.151Z,11.80
2018-05-18T07:20:27.647Z,11.80
2018-05-18T07:23:00.052Z,11.70
2018-05-18T07:25:32.440Z,11.70
2018-05-18T07:28:04.741Z,11.90
2018-05-18T07:30:37.080Z,12.00
2018-05-18T07:33:09.415Z,12.10
2018-05-18T07:35:42.574Z,12.20
2018-05-18T07:38:14.832Z,12.20
2018-05-18T07:40:47.187Z,12.20
2018-05-18T07:43:20.371Z,12.30
2018-05-18T07:45:52.784Z,12.20
2018-05-18T07:48:25.109Z,12.30
2018-05-18T07:50:57.573Z,12.20
2018-05-18T07:53:30.037Z,12.40
2018-05-18T07:56:02.323Z,12.40
2018-05-18T07:58:34.988Z,12.60
2018-05-18T08:01:07.406Z,12.60
2018-05-18T08:03:39.730Z,12.70
2018-05-18T08:06:12.097Z,12.80
2018-05-18T08:08:44.412Z,12.80
2018-05-18T08:11:16.745Z,12.90
2018-05-18T08:13:49.062Z,12.90
2018-05-18T08:16:21.410Z,13.10
2018-05-18T08:18:53.750Z,13.10
2018-05-18T08:21:26.967Z,13.00
2018-05-18T08:23:59.290Z,13.00
2018-05-18T08:26:31.727Z,13.10
2018-05-18T08:29:16.526Z,12.90
2018-05-18T08:31:48.776Z,13.20
2018-05-18T08:34:21.244Z,13.40
2018-05-18T08:36:53.669Z,13.60
2018-05-18T08:39:26.061Z,13.80
2018-05-18T08:41:58.394Z,14.00
2018-05-18T08:44:30.779Z,14.00
2018-05-18T08:47:03.088Z,14.20
2018-05-18T08:49:35.484Z,14.20
2018-05-18T08:52:07.836Z,14.10
2018-05-18T08:54:40.233Z,14.00
2018-05-18T08:57:12.562Z,14.10
2018-05-18T08:59:44.887Z,14.30
2018-05-18T09:02:17.268Z,14.40
2018-05-18T09:04:49.517Z,14.60
2018-05-18T09:07:21.848Z,14.70
2018-05-18T09:09:54.197Z,14.60
2018-05-18T09:12:26.601Z,14.50
2018-05-18T09:14:58.862Z,14.60
2018-05-18T09:17:31.112Z,15.00
2018-05-18T09:20:03.469Z,15.30
2018-05-18T09:22:35.867Z,15.50
2018-05-18T09:25:09.017Z,15.50
2018-05-18T09:27:41.377Z,15.50
2018-05-18T09:30:13.750Z,15.80
2018-05-18T09:32:46.064Z,15.40
2018-05-18T09:35:19.151Z,15.00
2018-05-18T09:37:52.273Z,15.10
2018-05-18T09:40:24.539Z,15.10
2018-05-18T09:42:56.864Z,15.10
2018-05-18T09:45:29.206Z,15.10
2018-05-18T09:48:01.545Z,15.60
2018-05-18T09:50:33.836Z,15.50
2018-05-18T09:53:06.232Z,15.60
2018-05-18T09:55:38.528Z,15.50
2018-05-18T09:58:10.868Z,15.60
2018-05-18T10:00:43.149Z,16.00
2018-05-18T10:03:15.418Z,16.20
2018-05-18T10:05:47.695Z,16.20
2018-05-18T10:08:20.043Z,15.90
2018-05-18T10:10:52.331Z,16.10
2018-05-18T10:13:24.760Z,16.40
2018-05-18T10:15:57.072Z,16.70
2018-05-18T10:18:29.422Z,16.50
2018-05-18T10:21:01.907Z,16.40
2018-05-18T10:23:34.325Z,16.20
2018-05-18T10:26:06.590Z,16.10
2018-05-18T10:28:38.971Z,16.00
2018-05-18T10:31:11.323Z,16.10
2018-05-18T10:33:43.714Z,16.10
2018-05-18T10:36:16.126Z,16.20
2018-05-18T10:38:48.466Z,16.40
2018-05-18T10:41:20.741Z,16.40
2018-05-18T10:43:55.090Z,16.50
2018-05-18T10:46:29.107Z,16.40
2018-05-18T10:49:01.572Z,16.40
2018-05-18T10:51:34.150Z,16.30
2018-05-18T10:54:06.571Z,16.20
2018-05-18T10:56:38.950Z,16.20
2018-05-18T10:59:11.271Z,16.50
2018-05-18T11:01:43.532Z,16.20
2018-05-18T11:04:15.769Z,16.30
2018-05-18T11:06:48.065Z,16.70
2018-05-18T11:09:20.577Z,16.60
2018-05-18T11:11:52.826Z,16.50
2018-05-18T11:14:25.202Z,16.30
2018-05-18T11:16:57.528Z,16.70
2018-05-18T11:19:29.879Z,16.40
2018-05-18T11:22:02.243Z,16.40
2018-05-18T11:24:34.641Z,16.20
2018-05-18T11:27:06.965Z,16.20
2018-05-18T11:29:39.610Z,16.30
2018-05-18T11:32:12.602Z,16.80
2018-05-18T11:34:45.080Z,16.80
2018-05-18T11:37:18.147Z,16.90
2018-05-18T11:39:50.530Z,16.90
2018-05-18T11:42:22.836Z,16.90
2018-05-18T11:44:55.183Z,16.70
2018-05-18T11:47:28.246Z,16.60
2018-05-18T11:50:00.651Z,16.50
2018-05-18T11:52:33.697Z,16.20
2018-05-18T11:55:06.031Z,16.20
2018-05-18T11:57:38.292Z,16.50
2018-05-18T12:00:10.652Z,16.40
2018-05-18T12:02:43.063Z,16.40
2018-05-18T12:05:15.339Z,16.30
2018-05-18T12:07:47.662Z,16.30
2018-05-18T12:10:20.788Z,16.10
2018-05-18T12:12:53.090Z,16.00
2018-05-18T12:15:25.339Z,16.30
2018-05-18T12:17:57.746Z,16.40
2018-05-18T12:20:30.068Z,16.60
2018-05-18T12:23:02.339Z,16.70
2018-05-18T12:25:34.684Z,16.70
2018-05-18T12:28:07.092Z,16.80
2018-05-18T12:30:39.528Z,16.90
2018-05-18T12:33:12.536Z,16.80
2018-05-18T12:35:44.961Z,16.80
2018-05-18T12:38:17.426Z,16.70
2018-05-18T12:40:49.729Z,16.50
2018-05-18T12:43:22.895Z,16.70
2018-05-18T12:45:55.301Z,16.60
2018-05-18T12:48:28.366Z,16.50
2018-05-18T12:51:00.733Z,16.50
2018-05-18T12:53:33.018Z,16.70
2018-05-18T12:56:06.063Z,16.80
2018-05-18T12:58:38.348Z,16.80
2018-05-18T13:01:11.417Z,16.70
2018-05-18T13:03:43.680Z,16.80
2018-05-18T13:06:16.298Z,16.90
2018-05-18T13:08:48.788Z,17.10
2018-05-18T13:11:21.148Z,16.70
2018-05-18T13:13:53.516Z,16.40
2018-05-18T13:16:25.878Z,16.20
2018-05-18T13:18:58.371Z,16.10
2018-05-18T13:21:30.652Z,16.20
2018-05-18T13:24:02.995Z,16.10
2018-05-18T13:26:35.310Z,15.80
2018-05-18T13:29:08.358Z,16.10
2018-05-18T13:31:40.679Z,16.10
2018-05-18T13:34:13.044Z,16.20
2018-05-18T13:36:46.136Z,16.10
2018-05-18T13:39:18.553Z,16.00
2018-05-18T13:41:51.140Z,16.00
2018-05-18T13:44:23.415Z,16.10
2018-05-18T13:46:55.792Z,16.30
2018-05-18T13:49:28.074Z,16.50
2018-05-18T13:52:00.333Z,16.40
2018-05-18T13:54:32.706Z,16.30
2018-05-18T13:57:05.234Z,16.10
2018-05-18T13:59:37.563Z,16.30
2018-05-18T14:02:09.835Z,16.50
2018-05-18T14:04:42.848Z,16.50
2018-05-18T14:07:16.008Z,16.30
2018-05-18T14:09:48.367Z,16.20
2018-05-18T14:12:20.672Z,16.20
2018-05-18T14:14:53.745Z,15.80
2018-05-18T14:17:26.390Z,15.70
2018-05-18T14:19:58.741Z,15.60
2018-05-18T14:22:31.144Z,15.60
2018-05-18T14:25:03.531Z,15.90
2018-05-18T14:27:35.799Z,16.00
2018-05-18T14:30:08.261Z,15.80
2018-05-18T14:32:40.782Z,15.70
2018-05-18T14:35:13.875Z,15.60
2018-05-18T14:37:47.042Z,15.70
2018-05-18T14:40:20.009Z,15.60
2018-05-18T14:42:52.419Z,15.60
2018-05-18T14:45:25.591Z,15.60
2018-05-18T14:47:57.968Z,15.50
2018-05-18T14:50:30.333Z,15.70
2018-05-18T14:53:02.756Z,15.90
2018-05-18T14:55:35.384Z,15.90
2018-05-18T14:58:08.998Z,15.80
2018-05-18T15:00:42.054Z,15.70
2018-05-18T15:03:14.457Z,15.70
2018-05-18T15:05:46.724Z,15.70
2018-05-18T15:08:19.096Z,15.70
2018-05-18T15:10:51.438Z,15.60
2018-05-18T15:13:23.810Z,15.60
2018-05-18T15:15:56.096Z,15.70
2018-05-18T15:18:28.361Z,15.40
2018-05-18T15:21:00.650Z,15.50
2018-05-18T15:23:33.436Z,15.40
2018-05-18T15:26:05.691Z,15.30
2018-05-18T15:28:37.979Z,15.30
2018-05-18T15:31:10.220Z,15.40
2018-05-18T15:33:42.581Z,15.50
2018-05-18T15:36:15.019Z,15.40
2018-05-18T15:38:48.184Z,15.00
2018-05-18T15:41:20.561Z,15.00
2018-05-18T15:43:53.758Z,14.80
2018-05-18T15:46:26.913Z,15.00
2018-05-18T15:49:00.280Z,15.00
2018-05-18T15:51:32.565Z,15.00
2018-05-18T15:54:05.705Z,15.00
2018-05-18T15:56:38.756Z,15.00
2018-05-18T15:59:11.172Z,14.90
2018-05-18T16:01:44.157Z,14.60
2018-05-18T16:04:17.351Z,14.70
2018-05-18T16:06:49.751Z,14.70
2018-05-18T16:09:22.072Z,14.80
2018-05-18T16:11:54.370Z,14.80
2018-05-18T16:14:27.664Z,14.80
2018-05-18T16:17:00.721Z,14.80
2018-05-18T16:19:33.047Z,14.80
2018-05-18T16:22:05.391Z,14.60
2018-05-18T16:24:38.517Z,14.60
2018-05-18T16:27:10.760Z,14.60
2018-05-18T16:29:43.859Z,14.40
2018-05-18T16:32:16.102Z,14.40
2018-05-18T16:34:48.483Z,14.30
2018-05-18T16:37:21.545Z,14.30
2018-05-18T16:39:53.964Z,14.20
2018-05-18T16:42:26.371Z,14.30
2018-05-18T16:44:58.788Z,14.40
2018-05-18T16:47:31.145Z,14.20
2018-05-18T16:50:03.518Z,14.10
2018-05-18T16:52:35.816Z,14.10
2018-05-18T16:55:08.183Z,14.10
2018-05-18T16:57:40.517Z,13.90
2018-05-18T17:00:12.850Z,13.90
2018-05-18T17:02:45.278Z,13.90
2018-05-18T17:05:17.655Z,13.80
2018-05-18T17:07:50.023Z,13.50
2018-05-18T17:10:22.296Z,13.30
2018-05-18T17:12:54.534Z,13.20
2018-05-18T17:15:26.864Z,13.30
2018-05-18T17:17:59.906Z,13.30
2018-05-18T17:20:32.333Z,13.30
2018-05-18T17:23:04.611Z,13.10
2018-05-18T17:25:37.693Z,13.20
2018-05-18T17:28:10.015Z,13.20
2018-05-18T17:30:42.426Z,13.30
2018-05-18T17:33:15.549Z,13.20
2018-05-18T17:35:48.000Z,13.20
2018-05-18T17:38:20.304Z,13.20
2018-05-18T17:40:52.632Z,13.00
2018-05-18T17:43:25.681Z,12.90
2018-05-18T17:45:57.983Z,12.90
2018-05-18T17:48:31.128Z,12.80
2018-05-18T17:51:03.612Z,12.70
2018-05-18T17:53:36.106Z,12.70
2018-05-18T17:56:08.474Z,12.80
2018-05-18T17:58:40.780Z,12.80
2018-05-18T18:01:13.988Z,12.90
2018-05-18T18:03:46.305Z,12.80
2018-05-18T18:06:18.862Z,12.80
2018-05-18T18:08:51.166Z,12.70
2018-05-18T18:11:23.505Z,12.80
2018-05-18T18:13:55.777Z,12.80
2018-05-18T18:16:28.103Z,12.70
2018-05-18T18:19:08.256Z,12.70
2018-05-18T18:21:40.640Z,12.70
2018-05-18T18:24:12.993Z,12.70
2018-05-18T18:26:45.372Z,12.60
2018-05-18T18:29:17.698Z,12.60
2018-05-18T18:31:50.105Z,12.60
2018-05-18T18:34:23.241Z,12.50
2018-05-18T18:36:56.381Z,12.40
2018-05-18T18:39:28.616Z,12.40
2018-05-18T18:42:00.957Z,12.40
2018-05-18T18:44:33.277Z,12.50
2018-05-18T18:47:05.622Z,12.50
2018-05-18T18:49:38.141Z,12.40
2018-05-18T18:52:10.532Z,12.40
2018-05-18T18:54:42.955Z,12.40
2018-05-18T18:57:15.253Z,12.40
2018-05-18T18:59:47.676Z,12.40
2018-05-18T19:02:20.124Z,12.40
2018-05-18T19:04:53.337Z,12.40
2018-05-18T19:07:25.822Z,12.30
2018-05-18T19:09:58.951Z,12.30
2018-05-18T19:12:31.325Z,12.30
2018-05-18T19:15:03.582Z,12.30
2018-05-18T19:17:36.071Z,12.30
2018-05-18T19:20:08.494Z,12.30
2018-05-18T19:22:40.820Z,12.30
2018-05-18T19:25:13.169Z,12.30
2018-05-18T19:27:45.528Z,12.20
2018-05-18T19:30:17.875Z,12.20
2018-05-18T19:32:50.276Z,12.20
2018-05-18T19:35:22.843Z,12.10
2018-05-18T19:37:55.204Z,12.20
2018-05-18T19:40:27.632Z,12.10
2018-05-18T19:42:59.938Z,12.10
2018-05-18T19:45:32.301Z,12.10
2018-05-18T19:48:05.494Z,12.10
2018-05-18T19:50:38.638Z,12.10
2018-05-18T19:53:10.913Z,12.10
2018-05-18T19:55:43.271Z,12.10
2018-05-18T19:58:15.579Z,12.00
2018-05-18T20:00:47.872Z,12.00
2018-05-18T20:03:20.225Z,12.00
2018-05-18T20:05:52.615Z,12.00
2018-05-18T20:08:25.029Z,12.10
2018-05-18T20:10:57.378Z,12.00
2018-05-18T20:13:29.731Z,12.00
2018-05-18T20:16:02.711Z,12.00
2018-05-18T20:18:35.807Z,11.90
2018-05-18T20:21:08.884Z,11.90
2018-05-18T20:23:41.268Z,11.90
2018-05-18T20:26:14.415Z,11.80
2018-05-18T20:28:46.821Z,11.80
2018-05-18T20:31:19.838Z,11.80
2018-05-18T20:33:52.138Z,11.80
2018-05-18T20:36:24.466Z,11.80
2018-05-18T20:38:57.629Z,11.80
2018-05-18T20:41:30.013Z,11.80
2018-05-18T20:44:02.439Z,11.90
2018-05-18T20:46:34.752Z,11.90
2018-05-18T20:49:07.223Z,11.90
2018-05-18T20:51:39.482Z,12.00
2018-05-18T20:54:11.833Z,11.90
2018-05-18T20:56:44.221Z,11.90
2018-05-18T20:59:16.573Z,11.90
2018-05-18T21:01:48.849Z,11.90
2018-05-18T21:04:21.139Z,12.00
2018-05-18T21:06:53.427Z,11.90
2018-05-18T21:09:25.721Z,11.80
2018-05-18T21:11:58.014Z,11.80
2018-05-18T21:14:30.359Z,11.80
2018-05-18T21:17:02.796Z,11.90
2018-05-18T21:19:35.224Z,11.90
2018-05-18T21:22:07.515Z,11.90
2018-05-18T21:24:39.797Z,11.80
2018-05-18T21:27:12.160Z,11.90
2018-05-18T21:29:44.600Z,11.80
2018-05-18T21:32:17.858Z,11.80
2018-05-18T21:34:50.212Z,11.70
2018-05-18T21:37:22.473Z,11.80
2018-05-18T21:39:54.789Z,11.80
2018-05-18T21:42:27.092Z,11.80
2018-05-18T21:44:59.575Z,11.80
2018-05-18T21:47:32.876Z,11.80
2018-05-18T21:50:05.272Z,11.80
2018-05-18T21:52:37.700Z,11.80
2018-05-18T21:55:10.895Z,11.80
2018-05-18T21:57:43.188Z,11.80
2018-05-18T22:00:15.581Z,11.80
2018-05-18T22:02:47.895Z,11.80
2018-05-18T22:05:20.277Z,11.70
2018-05-18T22:07:52.592Z,11.70
2018-05-18T22:10:24.893Z,11.70
2018-05-18T22:12:57.940Z,11.70
2018-05-18T22:15:31.011Z,11.70
2018-05-18T22:18:03.592Z,11.70
2018-05-18T22:20:35.923Z,11.70
2018-05-18T22:23:08.227Z,11.70
2018-05-18T22:25:40.667Z,11.70
2018-05-18T22:28:13.083Z,11.60
2018-05-18T22:30:45.497Z,11.60
2018-05-18T22:33:17.796Z,11.60
2018-05-18T22:35:50.116Z,11.70
2018-05-18T22:38:22.491Z,11.70
2018-05-18T22:40:54.739Z,11.70
2018-05-18T22:43:27.128Z,11.70
2018-05-18T22:45:59.669Z,11.60
2018-05-18T22:48:31.992Z,11.60
2018-05-18T22:51:04.439Z,11.60
2018-05-18T22:53:36.719Z,11.70
2018-05-18T22:56:09.040Z,11.70
2018-05-18T22:58:41.415Z,11.60
2018-05-18T23:01:14.515Z,11.60
2018-05-18T23:06:41.305Z,11.60
2018-05-18T23:09:13.644Z,11.60
2018-05-18T23:11:46.787Z,11.50
2018-05-18T23:14:19.048Z,11.50
2018-05-18T23:16:51.454Z,11.60
2018-05-18T23:19:23.723Z,11.60
2018-05-18T23:21:56.843Z,11.60
2018-05-18T23:24:29.302Z,11.60
2018-05-18T23:27:02.395Z,11.60
2018-05-18T23:29:35.459Z,11.60
2018-05-18T23:32:07.929Z,11.60
2018-05-18T23:34:40.300Z,11.60
2018-05-18T23:37:12.648Z,11.60
2018-05-18T23:39:45.726Z,11.60
2018-05-18T23:42:18.873Z,11.60
2018-05-18T23:44:51.264Z,11.60
2018-05-18T23:47:24.376Z,11.60
2018-05-18T23:49:56.728Z,11.60
2018-05-18T23:52:29.047Z,11.50
2018-05-18T23:55:01.422Z,11.50
2018-05-18T23:57:33.702Z,11.50
